createdAt,value
2018-12-06T00:00:43.149Z,98.33
2018-12-06T00:03:09.339Z,98.66
2018-12-06T00:05:35.474Z,98.28
2018-12-06T00:08:16.437Z,98.82
2018-12-06T00:10:43.223Z,98.46
2018-12-06T00:13:09.561Z,98.90
2018-12-06T00:15:35.832Z,98.74
2018-12-06T00:18:01.979Z,98.68
2018-12-06T00:20:28.141Z,98.68
2018-12-06T00:22:54.290Z,98.91
2018-12-06T00:25:20.404Z,98.66
2018-12-06T00:27:46.551Z,97.98
2018-12-06T00:30:24.835Z,98.16
2018-12-06T00:32:50.963Z,97.74
2018-12-06T00:35:17.071Z,97.67
2018-12-06T00:37:43.206Z,97.53
2018-12-06T00:40:10.252Z,98.02
2018-12-06T00:42:36.399Z,97.77
2018-12-06T00:45:02.687Z,97.36
2018-12-06T00:47:28.814Z,97.18
2018-12-06T00:49:54.935Z,97.46
2018-12-06T00:52:21.061Z,97.00
2018-12-06T00:54:47.204Z,97.05
2018-12-06T00:57:13.335Z,97.50
2018-12-06T00:59:39.471Z,96.80
2018-12-06T01:02:07.675Z,97.00
2018-12-06T01:04:33.807Z,97.06
2018-12-06T01:06:59.944Z,96.91
2018-12-06T01:09:26.077Z,97.26
2018-12-06T01:11:52.211Z,97.02
2018-12-06T01:14:20.404Z,97.23
2018-12-06T01:16:46.543Z,97.05
2018-12-06T01:19:12.659Z,97.34
2018-12-06T01:21:38.783Z,96.77
2018-12-06T01:24:04.899Z,97.05
2018-12-06T01:26:31.011Z,97.33
2018-12-06T01:28:57.143Z,97.41
2018-12-06T01:31:23.251Z,97.29
2018-12-06T01:33:49.398Z,97.18
2018-12-06T01:36:15.581Z,97.15
2018-12-06T01:38:41.763Z,97.02
2018-12-06T01:41:07.871Z,97.40
2018-12-06T01:43:34.001Z,97.32
2018-12-06T01:46:00.115Z,97.50
2018-12-06T01:48:26.468Z,97.21
2018-12-06T01:50:52.603Z,97.52
2018-12-06T01:53:18.740Z,97.20
2018-12-06T01:55:44.851Z,97.21
2018-12-06T01:58:11.020Z,97.08
2018-12-06T02:00:37.155Z,97.27
2018-12-06T02:03:03.355Z,97.65
2018-12-06T02:05:29.470Z,97.73
2018-12-06T02:07:55.584Z,97.50
2018-12-06T02:10:21.722Z,97.91
2018-12-06T02:12:47.850Z,97.93
2018-12-06T02:15:14.135Z,97.42
2018-12-06T02:17:40.244Z,98.00
2018-12-06T02:20:06.536Z,98.06
2018-12-06T02:22:32.662Z,97.47
2018-12-06T02:24:58.795Z,97.59
2018-12-06T02:27:24.963Z,97.32
2018-12-06T02:29:53.230Z,97.65
2018-12-06T02:32:19.349Z,97.67
2018-12-06T02:34:45.467Z,97.08
2018-12-06T02:37:11.608Z,97.74
2018-12-06T02:39:37.748Z,97.34
2018-12-06T02:42:03.931Z,97.24
2018-12-06T02:44:30.352Z,97.66
2018-12-06T02:46:56.459Z,97.78
2018-12-06T02:49:22.592Z,97.46
2018-12-06T02:51:48.707Z,97.48
2018-12-06T02:54:14.839Z,97.13
2018-12-06T02:56:40.962Z,97.48
2018-12-06T02:59:07.128Z,97.21
2018-12-06T03:01:33.263Z,97.09
2018-12-06T03:03:59.412Z,97.26
2018-12-06T03:06:25.516Z,96.75
2018-12-06T03:08:51.648Z,96.63
2018-12-06T03:11:17.773Z,96.75
2018-12-06T03:13:44.016Z,97.18
2018-12-06T03:16:10.143Z,97.34
2018-12-06T03:18:36.267Z,97.63
2018-12-06T03:21:02.448Z,97.48
2018-12-06T03:23:28.595Z,97.16
2018-12-06T03:25:54.732Z,97.54
2018-12-06T03:28:20.864Z,97.60
2018-12-06T03:30:46.994Z,97.44
2018-12-06T03:33:13.111Z,97.32
2018-12-06T03:35:39.228Z,98.12
2018-12-06T03:38:05.487Z,97.66
2018-12-06T03:40:31.631Z,97.51
2018-12-06T03:42:57.751Z,97.26
2018-12-06T03:45:23.888Z,97.37
2018-12-06T03:47:50.005Z,97.82
2018-12-06T03:50:16.123Z,97.62
2018-12-06T03:52:42.235Z,97.76
2018-12-06T03:55:08.401Z,97.93
2018-12-06T03:57:34.511Z,98.19
2018-12-06T04:00:00.619Z,97.51
2018-12-06T04:02:26.734Z,97.67
2018-12-06T04:04:52.851Z,97.64
2018-12-06T04:07:18.979Z,97.19
2018-12-06T04:09:45.114Z,97.70
2018-12-06T04:12:11.257Z,97.12
2018-12-06T04:14:38.278Z,97.22
2018-12-06T04:17:04.407Z,97.42
2018-12-06T04:19:30.519Z,96.61
2018-12-06T04:21:56.641Z,96.66
2018-12-06T04:24:22.756Z,96.96
2018-12-06T04:26:48.875Z,97.33
2018-12-06T04:29:14.990Z,97.02
2018-12-06T04:31:41.158Z,97.17
2018-12-06T04:34:07.265Z,97.48
2018-12-06T04:36:33.380Z,96.89
2018-12-06T04:38:59.624Z,97.27
2018-12-06T04:41:25.743Z,97.35
2018-12-06T04:43:51.859Z,96.82
2018-12-06T04:46:18.009Z,96.69
2018-12-06T04:48:44.145Z,96.40
2018-12-06T04:51:10.285Z,96.98
2018-12-06T04:53:36.399Z,96.51
2018-12-06T04:56:02.527Z,96.56
2018-12-06T04:58:28.651Z,96.55
2018-12-06T05:00:54.782Z,96.53
2018-12-06T05:03:20.940Z,96.32
2018-12-06T05:05:47.051Z,96.16
2018-12-06T05:08:13.311Z,95.94
2018-12-06T05:10:39.444Z,96.01
2018-12-06T05:13:05.640Z,96.55
2018-12-06T05:15:31.753Z,95.54
2018-12-06T05:17:57.886Z,96.05
2018-12-06T05:20:24.023Z,96.29
2018-12-06T05:22:50.162Z,96.02
2018-12-06T05:25:16.275Z,96.19
2018-12-06T05:27:42.411Z,96.12
2018-12-06T05:30:08.675Z,96.20
2018-12-06T05:32:34.795Z,96.01
2018-12-06T05:35:00.906Z,96.14
2018-12-06T05:37:27.094Z,96.21
2018-12-06T05:39:53.254Z,96.25
2018-12-06T05:42:19.401Z,96.59
2018-12-06T05:44:45.521Z,96.50
2018-12-06T05:47:11.661Z,96.71
2018-12-06T05:49:37.780Z,96.69
2018-12-06T05:52:03.899Z,96.07
2018-12-06T05:54:30.031Z,96.89
2018-12-06T05:56:56.170Z,96.62
2018-12-06T05:59:22.344Z,97.04
2018-12-06T06:01:48.490Z,97.01
2018-12-06T06:04:14.630Z,96.81
2018-12-06T06:06:40.775Z,96.86
2018-12-06T06:09:06.943Z,97.01
2018-12-06T06:11:33.069Z,97.04
2018-12-06T06:13:59.213Z,96.54
2018-12-06T06:16:25.340Z,96.51
2018-12-06T06:18:51.484Z,96.25
2018-12-06T06:21:17.623Z,96.75
2018-12-06T06:23:44.767Z,96.49
2018-12-06T06:26:10.915Z,96.96
2018-12-06T06:28:37.198Z,97.14
2018-12-06T06:31:03.348Z,96.92
2018-12-06T06:33:29.469Z,97.45
2018-12-06T06:35:55.605Z,97.27
2018-12-06T06:38:22.112Z,97.30
2018-12-06T06:40:48.266Z,97.60
2018-12-06T06:43:14.387Z,97.18
2018-12-06T06:45:40.576Z,97.30
2018-12-06T06:48:06.723Z,97.96
2018-12-06T06:50:32.862Z,98.03
2018-12-06T06:52:58.997Z,97.72
2018-12-06T06:55:25.147Z,97.73
2018-12-06T06:57:51.292Z,97.80
2018-12-06T07:00:17.894Z,97.36
2018-12-06T07:02:44.080Z,97.38
2018-12-06T07:05:10.293Z,96.65
2018-12-06T07:07:36.423Z,96.36
2018-12-06T07:10:04.619Z,97.01
2018-12-06T07:12:30.782Z,96.67
2018-12-06T07:14:56.929Z,96.49
2018-12-06T07:17:23.066Z,97.08
2018-12-06T07:19:49.296Z,96.82
2018-12-06T07:22:15.479Z,96.26
2018-12-06T07:24:41.655Z,97.06
2018-12-06T07:27:07.787Z,96.87
2018-12-06T07:29:34.034Z,96.66
2018-12-06T07:32:00.173Z,96.98
2018-12-06T07:34:26.331Z,97.03
2018-12-06T07:36:52.504Z,97.22
2018-12-06T07:39:18.645Z,97.64
2018-12-06T07:41:44.817Z,97.26
2018-12-06T07:44:10.946Z,97.31
2018-12-06T07:46:37.080Z,97.69
2018-12-06T07:49:03.254Z,97.54
2018-12-06T07:51:29.398Z,97.31
2018-12-06T07:53:55.543Z,97.52
2018-12-06T07:56:21.696Z,97.18
2018-12-06T07:58:47.827Z,97.12
2018-12-06T08:01:13.997Z,97.12
2018-12-06T08:03:40.230Z,97.16
2018-12-06T08:06:06.504Z,97.49
2018-12-06T08:08:32.623Z,97.08
2018-12-06T08:10:58.767Z,97.54
2018-12-06T08:13:24.923Z,97.04
2018-12-06T08:15:51.090Z,97.60
2018-12-06T08:18:17.240Z,97.42
2018-12-06T08:20:43.424Z,97.21
2018-12-06T08:23:09.619Z,97.46
2018-12-06T08:25:35.772Z,97.15
2018-12-06T08:28:01.912Z,97.19
2018-12-06T08:30:28.051Z,97.92
2018-12-06T08:32:54.267Z,98.15
2018-12-06T08:35:20.421Z,97.85
2018-12-06T08:37:46.591Z,97.37
2018-12-06T08:40:12.737Z,97.90
2018-12-06T08:42:45.410Z,97.14
2018-12-06T08:45:07.117Z,97.26
2018-12-06T08:47:33.358Z,97.29
2018-12-06T08:49:59.507Z,98.20
2018-12-06T08:52:25.632Z,98.06
2018-12-06T08:54:51.773Z,98.27
2018-12-06T08:57:17.931Z,97.66
2018-12-06T08:59:44.047Z,97.96
2018-12-06T09:02:10.186Z,98.08
2018-12-06T09:04:37.612Z,97.65
2018-12-06T09:07:04.011Z,98.48
2018-12-06T09:09:30.166Z,97.87
2018-12-06T09:11:56.645Z,98.08
2018-12-06T09:14:22.778Z,98.42
2018-12-06T09:16:48.951Z,98.23
2018-12-06T09:19:15.106Z,98.04
2018-12-06T09:21:41.246Z,98.33
2018-12-06T09:24:07.389Z,98.49
2018-12-06T09:26:33.568Z,98.61
2018-12-06T09:28:59.719Z,97.93
2018-12-06T09:31:25.847Z,98.14
2018-12-06T09:34:05.211Z,98.07
2018-12-06T09:36:31.614Z,98.26
2018-12-06T09:38:57.871Z,98.28
2018-12-06T09:41:24.038Z,98.06
2018-12-06T09:43:50.235Z,97.44
2018-12-06T09:46:16.404Z,97.69
2018-12-06T09:48:42.575Z,97.93
2018-12-06T09:51:08.712Z,97.24
2018-12-06T09:53:34.890Z,97.45
2018-12-06T09:56:01.034Z,97.25
2018-12-06T09:58:27.171Z,97.55
2018-12-06T10:00:53.329Z,97.58
2018-12-06T10:03:19.477Z,97.40
2018-12-06T10:05:45.609Z,97.58
2018-12-06T10:08:11.743Z,97.06
2018-12-06T10:10:37.899Z,97.50
2018-12-06T10:13:04.031Z,97.53
2018-12-06T10:15:30.188Z,97.50
2018-12-06T10:17:56.328Z,97.02
2018-12-06T10:20:22.460Z,97.45
2018-12-06T10:22:48.630Z,97.37
2018-12-06T10:25:14.779Z,97.63
2018-12-06T10:27:40.911Z,98.28
2018-12-06T10:30:07.220Z,98.00
2018-12-06T10:32:33.349Z,98.10
2018-12-06T10:34:59.492Z,97.51
2018-12-06T10:37:25.647Z,97.70
2018-12-06T10:39:51.785Z,97.03
2018-12-06T10:42:17.934Z,96.93
2018-12-06T10:44:44.068Z,97.25
2018-12-06T10:47:10.226Z,97.03
2018-12-06T10:49:36.445Z,97.08
2018-12-06T10:52:02.578Z,97.08
2018-12-06T10:54:28.726Z,97.14
2018-12-06T10:56:54.860Z,97.66
2018-12-06T10:59:21.003Z,97.16
2018-12-06T11:01:49.188Z,97.74
2018-12-06T11:04:15.446Z,97.17
2018-12-06T11:06:41.599Z,97.99
2018-12-06T11:09:07.859Z,97.75
2018-12-06T11:11:34.007Z,97.72
2018-12-06T11:14:40.755Z,98.12
2018-12-06T11:17:06.896Z,98.09
2018-12-06T11:19:33.033Z,98.47
2018-12-06T11:21:59.209Z,98.06
2018-12-06T11:24:25.335Z,98.43
2018-12-06T11:26:51.481Z,98.03
2018-12-06T11:29:17.615Z,97.78
2018-12-06T11:31:43.766Z,98.04
2018-12-06T11:34:09.908Z,97.74
2018-12-06T11:36:36.059Z,98.29
2018-12-06T11:39:04.143Z,98.00
2018-12-06T11:41:30.323Z,98.07
2018-12-06T11:43:56.447Z,98.54
2018-12-06T11:46:22.579Z,98.41
2018-12-06T11:48:48.714Z,98.43
2018-12-06T11:51:14.926Z,98.26
2018-12-06T11:53:41.053Z,98.49
2018-12-06T11:56:07.214Z,98.32
2018-12-06T11:58:33.371Z,98.65
2018-12-06T12:00:59.503Z,98.65
2018-12-06T12:03:25.631Z,98.34
2018-12-06T12:05:58.434Z,98.21
2018-12-06T12:08:19.947Z,98.22
2018-12-06T12:10:46.108Z,98.34
2018-12-06T12:13:12.239Z,98.80
2018-12-06T12:15:38.365Z,98.77
2018-12-06T12:20:00.885Z,98.73
2018-12-06T12:22:27.078Z,98.17
2018-12-06T12:24:53.210Z,98.66
2018-12-06T12:27:19.359Z,98.42
2018-12-06T12:29:45.492Z,98.71
2018-12-06T12:32:11.647Z,98.33
2018-12-06T12:34:37.803Z,98.11
2018-12-06T12:37:03.951Z,98.36
2018-12-06T12:39:30.087Z,98.24
2018-12-06T12:41:56.221Z,98.49
2018-12-06T12:44:22.405Z,98.36
2018-12-06T12:46:48.522Z,98.40
2018-12-06T12:49:14.667Z,98.29
2018-12-06T12:51:40.787Z,98.81
2018-12-06T12:54:07.080Z,97.94
2018-12-06T12:56:33.211Z,97.91
2018-12-06T12:58:59.397Z,98.07
2018-12-06T13:01:25.522Z,98.48
2018-12-06T13:03:51.639Z,98.08
2018-12-06T13:06:17.782Z,97.85
2018-12-06T13:08:43.899Z,98.27
2018-12-06T13:11:10.023Z,97.79
2018-12-06T13:13:36.157Z,97.81
2018-12-06T13:16:02.435Z,98.04
2018-12-06T13:18:28.584Z,98.18
2018-12-06T13:20:54.759Z,97.79
2018-12-06T13:23:21.247Z,98.21
2018-12-06T13:25:47.364Z,97.81
2018-12-06T13:28:13.687Z,97.91
2018-12-06T13:30:39.951Z,97.59
2018-12-06T13:33:06.108Z,97.86
2018-12-06T13:35:32.291Z,97.46
2018-12-06T13:37:58.416Z,97.91
2018-12-06T13:40:24.543Z,97.64
2018-12-06T13:42:50.676Z,97.80
2018-12-06T13:45:16.955Z,97.70
2018-12-06T13:47:43.101Z,97.57
2018-12-06T13:50:09.268Z,97.30
2018-12-06T13:52:35.399Z,97.24
2018-12-06T13:55:01.572Z,98.04
2018-12-06T13:57:27.738Z,97.43
2018-12-06T13:59:53.891Z,98.04
2018-12-06T14:02:20.139Z,97.52
2018-12-06T14:04:46.300Z,97.57
2018-12-06T14:07:12.431Z,98.09
2018-12-06T14:09:38.585Z,97.75
2018-12-06T14:12:04.731Z,97.22
2018-12-06T14:14:30.898Z,97.68
2018-12-06T14:16:57.031Z,97.50
2018-12-06T14:19:23.212Z,97.78
2018-12-06T14:21:49.356Z,96.96
2018-12-06T14:24:15.511Z,96.68
2018-12-06T14:26:41.653Z,96.80
2018-12-06T14:29:07.879Z,97.28
2018-12-06T14:31:34.034Z,97.54
2018-12-06T14:34:00.174Z,97.41
2018-12-06T14:36:26.326Z,97.25
2018-12-06T14:38:52.442Z,97.21
2018-12-06T14:41:18.571Z,97.20
2018-12-06T14:43:44.689Z,97.33
2018-12-06T14:46:10.871Z,96.80
2018-12-06T14:48:37.147Z,97.11
2018-12-06T14:51:03.328Z,96.53
2018-12-06T14:53:29.484Z,96.79
2018-12-06T14:55:55.647Z,96.80
2018-12-06T14:58:21.776Z,96.41
2018-12-06T15:00:47.924Z,96.77
2018-12-06T15:03:14.071Z,96.57
2018-12-06T15:05:40.267Z,96.73
2018-12-06T15:08:06.439Z,96.87
2018-12-06T15:10:32.607Z,96.67
2018-12-06T15:12:58.728Z,97.17
2018-12-06T15:15:24.848Z,96.80
2018-12-06T15:17:51.001Z,96.93
2018-12-06T15:20:17.135Z,96.70
2018-12-06T15:22:43.310Z,96.99
2018-12-06T15:25:09.440Z,96.85
2018-12-06T15:27:35.922Z,96.59
2018-12-06T15:30:05.433Z,96.61
2018-12-06T15:32:31.575Z,96.87
2018-12-06T15:34:57.712Z,96.38
2018-12-06T15:37:23.892Z,96.79
2018-12-06T15:39:50.033Z,96.56
2018-12-06T15:42:16.172Z,96.41
2018-12-06T15:44:42.331Z,96.82
2018-12-06T15:47:08.471Z,97.46
2018-12-06T15:49:34.583Z,97.30
2018-12-06T15:52:00.707Z,97.27
2018-12-06T15:54:26.837Z,96.63
2018-12-06T15:56:52.956Z,96.62
2018-12-06T15:59:19.123Z,96.88
2018-12-06T16:01:45.275Z,97.35
2018-12-06T16:04:11.439Z,97.59
2018-12-06T16:06:37.555Z,97.65
2018-12-06T16:09:05.047Z,97.43
2018-12-06T16:11:31.187Z,97.16
2018-12-06T16:13:57.331Z,97.44
2018-12-06T16:16:23.491Z,97.06
2018-12-06T16:18:49.627Z,97.60
2018-12-06T16:21:15.795Z,97.50
2018-12-06T16:23:41.916Z,97.05
2018-12-06T16:26:08.043Z,97.14
2018-12-06T16:28:34.208Z,97.56
2018-12-06T16:31:00.336Z,97.52
2018-12-06T16:33:26.499Z,97.01
2018-12-06T16:35:52.726Z,97.62
2018-12-06T16:38:18.867Z,97.52
2018-12-06T16:40:44.991Z,97.45
2018-12-06T16:43:11.338Z,96.83
2018-12-06T16:45:37.463Z,96.67
2018-12-06T16:48:03.609Z,96.94
2018-12-06T16:50:29.768Z,96.28
2018-12-06T16:52:55.926Z,96.43
2018-12-06T16:55:22.219Z,96.73
2018-12-06T16:57:48.371Z,96.54
2018-12-06T17:00:14.788Z,96.49
2018-12-06T17:02:41.119Z,96.97
2018-12-06T17:05:07.340Z,96.71
2018-12-06T17:07:33.458Z,96.91
2018-12-06T17:09:59.611Z,97.29
2018-12-06T17:12:25.743Z,96.91
2018-12-06T17:14:51.912Z,96.72
2018-12-06T17:17:18.036Z,96.77
2018-12-06T17:19:44.243Z,96.35
2018-12-06T17:22:10.415Z,96.67
2018-12-06T17:24:36.591Z,96.19
2018-12-06T17:27:02.761Z,96.53
2018-12-06T17:29:28.935Z,96.44
2018-12-06T17:31:55.064Z,96.43
2018-12-06T17:34:21.234Z,96.29
2018-12-06T17:36:47.443Z,95.89
2018-12-06T17:39:13.592Z,96.12
2018-12-06T17:41:39.712Z,96.73
2018-12-06T17:44:05.827Z,96.71
2018-12-06T17:46:31.971Z,96.88
2018-12-06T17:48:58.094Z,95.99
2018-12-06T17:51:24.278Z,96.05
2018-12-06T17:53:52.353Z,95.83
2018-12-06T17:56:18.575Z,95.44
2018-12-06T17:58:44.695Z,95.96
2018-12-06T18:01:10.891Z,96.07
2018-12-06T18:03:37.036Z,96.47
2018-12-06T18:06:03.287Z,96.59
2018-12-06T18:08:29.415Z,96.69
2018-12-06T18:10:55.741Z,97.07
2018-12-06T18:13:21.913Z,96.46
2018-12-06T18:15:48.338Z,96.49
2018-12-06T18:18:14.471Z,96.32
2018-12-06T18:20:40.641Z,96.54
2018-12-06T18:23:06.808Z,96.00
2018-12-06T18:25:33.583Z,95.81
2018-12-06T18:27:59.724Z,96.20
2018-12-06T18:30:25.879Z,96.28
2018-12-06T18:32:52.023Z,95.97
2018-12-06T18:35:18.160Z,96.09
2018-12-06T18:37:44.305Z,96.44
2018-12-06T18:40:10.452Z,96.55
2018-12-06T18:42:36.731Z,96.14
2018-12-06T18:45:03.863Z,96.02
2018-12-06T18:47:30.007Z,96.47
2018-12-06T18:49:56.140Z,96.30
2018-12-06T18:52:22.281Z,95.96
2018-12-06T18:54:48.431Z,96.40
2018-12-06T18:57:14.577Z,96.28
2018-12-06T18:59:40.715Z,96.56
2018-12-06T19:02:06.868Z,96.13
2018-12-06T19:04:33.035Z,95.88
2018-12-06T19:06:59.196Z,95.16
2018-12-06T19:09:25.332Z,95.11
2018-12-06T19:11:51.467Z,95.19
2018-12-06T19:14:21.915Z,95.15
2018-12-06T19:16:45.764Z,94.86
2018-12-06T19:19:11.914Z,95.10
2018-12-06T19:21:38.083Z,95.09
2018-12-06T19:24:04.363Z,94.89
2018-12-06T19:26:30.495Z,94.62
2018-12-06T19:28:56.651Z,94.36
2018-12-06T19:31:22.772Z,93.27
2018-12-06T19:33:48.983Z,93.96
2018-12-06T19:36:15.128Z,93.84
2018-12-06T19:38:41.310Z,94.77
2018-12-06T19:41:07.450Z,94.44
2018-12-06T19:43:33.572Z,94.51
2018-12-06T19:45:59.720Z,94.52
2018-12-06T19:48:27.305Z,95.02
2018-12-06T19:50:53.603Z,93.37
2018-12-06T19:53:19.719Z,92.82
2018-12-06T19:55:45.843Z,93.48
2018-12-06T19:58:12.128Z,94.26
2018-12-06T20:00:38.348Z,93.90
2018-12-06T20:03:04.531Z,93.85
2018-12-06T20:05:30.669Z,94.05
2018-12-06T20:07:56.859Z,94.14
2018-12-06T20:10:23.011Z,94.08
2018-12-06T20:12:49.196Z,93.99
2018-12-06T20:15:15.388Z,92.63
2018-12-06T20:17:41.606Z,92.54
2018-12-06T20:20:07.791Z,93.45
2018-12-06T20:22:33.959Z,93.40
2018-12-06T20:25:00.162Z,93.30
2018-12-06T20:27:26.291Z,93.42
2018-12-06T20:29:52.486Z,92.81
2018-12-06T20:32:18.612Z,93.27
2018-12-06T20:34:44.750Z,93.69
2018-12-06T20:37:10.902Z,93.88
2018-12-06T20:39:37.047Z,94.19
2018-12-06T20:42:03.199Z,94.06
2018-12-06T20:44:29.351Z,93.20
2018-12-06T20:46:55.506Z,93.05
2018-12-06T20:49:21.639Z,93.60
2018-12-06T20:51:47.775Z,93.78
2018-12-06T20:54:13.890Z,94.08
2018-12-06T20:56:40.191Z,93.25
2018-12-06T20:59:06.344Z,93.91
2018-12-06T21:01:32.460Z,94.43
2018-12-06T21:03:58.584Z,94.57
2018-12-06T21:06:24.731Z,94.26
2018-12-06T21:08:50.849Z,94.19
2018-12-06T21:11:16.972Z,93.49
2018-12-06T21:13:43.075Z,93.03
2018-12-06T21:16:09.239Z,92.59
2018-12-06T21:18:35.355Z,91.82
2018-12-06T21:21:01.475Z,91.41
2018-12-06T21:23:27.650Z,92.14
2018-12-06T21:25:53.830Z,91.71
2018-12-06T21:28:19.941Z,91.34
2018-12-06T21:30:46.071Z,91.80
2018-12-06T21:33:12.228Z,90.18
2018-12-06T21:35:38.348Z,90.16
2018-12-06T21:38:04.510Z,90.14
2018-12-06T21:40:30.790Z,90.98
2018-12-06T21:42:56.935Z,91.62
2018-12-06T21:45:23.071Z,91.58
2018-12-06T21:47:49.225Z,91.55
2018-12-06T21:50:15.360Z,91.42
2018-12-06T21:52:41.479Z,89.19
2018-12-06T21:55:07.600Z,89.08
2018-12-06T21:57:33.738Z,89.68
2018-12-06T21:59:59.867Z,90.97
2018-12-06T22:02:26.867Z,91.71
2018-12-06T22:04:53.040Z,91.37
2018-12-06T22:07:19.192Z,91.16
2018-12-06T22:09:45.331Z,91.43
2018-12-06T22:12:11.521Z,91.30
2018-12-06T22:14:37.639Z,90.24
2018-12-06T22:17:04.126Z,89.38
2018-12-06T22:19:30.259Z,90.77
2018-12-06T22:21:56.597Z,90.39
2018-12-06T22:24:22.748Z,89.42
2018-12-06T22:26:48.887Z,89.56
2018-12-06T22:29:15.063Z,89.54
2018-12-06T22:31:41.218Z,90.63
2018-12-06T22:34:07.434Z,89.73
2018-12-06T22:36:33.561Z,90.58
2018-12-06T22:38:59.676Z,90.96
2018-12-06T22:41:25.851Z,90.92
2018-12-06T22:43:52.105Z,90.95
2018-12-06T22:46:18.258Z,91.06
2018-12-06T22:48:44.407Z,91.20
2018-12-06T22:51:10.532Z,89.97
2018-12-06T22:53:36.671Z,89.50
2018-12-06T22:56:03.041Z,89.86
2018-12-06T22:58:29.191Z,90.78
2018-12-06T23:00:56.369Z,90.75
2018-12-06T23:03:22.966Z,89.90
2018-12-06T23:05:49.155Z,89.87
2018-12-06T23:08:15.298Z,90.63
2018-12-06T23:10:41.430Z,90.78
2018-12-06T23:13:07.575Z,90.90
2018-12-06T23:15:33.723Z,90.67
2018-12-06T23:17:59.835Z,90.63
2018-12-06T23:20:25.992Z,90.82
2018-12-06T23:22:52.338Z,91.13
2018-12-06T23:25:18.502Z,89.73
2018-12-06T23:27:45.040Z,90.32
2018-12-06T23:30:11.194Z,88.83
2018-12-06T23:32:37.321Z,89.67
2018-12-06T23:35:04.443Z,89.85
2018-12-06T23:37:30.575Z,89.89
2018-12-06T23:39:56.747Z,89.26
2018-12-06T23:42:22.859Z,88.34
2018-12-06T23:44:48.991Z,88.94
2018-12-06T23:47:15.099Z,89.35
2018-12-06T23:49:41.249Z,89.99
2018-12-06T23:52:07.376Z,88.34
2018-12-06T23:54:33.559Z,88.51
2018-12-06T23:56:59.680Z,89.43
2018-12-06T23:59:25.791Z,89.09
